To NAV CANADA Home Page Login to a new session Search on AWWS site Feedback and Comments Disclaimer Vers la page française équivalente Tips FAQ What's new on the site To the Forecasts and Observations / NOTAM section To "File a Flight Plan" website Publications and other links Update of the User's profile FIC Telephone Numbers My Weather Data Folder Route Weather Data Regional Weather Data Local Weather Data To the Forecasts and Observations / NOTAM section
Request Generated 05/31/2016 at 05:45:59 UTC . Weather information available at that time is displayed.

METAR/TAF

MONCTON/GREATER MONCTON INTL/NB    

METAR CYQM 310500Z 19008KT 15SM FEW100 BKN160 BKN220 13/12 A2974 RMK
AC2AC3CI2 SLP074=
METAR CYQM 310400Z 21008KT 15SM FEW220 13/12 A2976 RMK CI2 SLP080=
METAR CYQM 310300Z 22009KT 15SM FEW220 13/12 A2977 RMK CI2 SLP083=

TAF CYQM 310538Z 3106/0106 21008KT P6SM FEW100
FM311400 25012KT P6SM FEW050
FM311800 27012G22KT P6SM BKN070
FM312000 22010G20KT P6SM -SHRA BKN050 PROB30 3120/3123 VRB15G25KT
2SM TSRA BR BKN020 OVC050CB
FM312300 21006KT P6SM FEW050
FM010300 VRB03KT P6SM -SHRA SCT020 BKN050
RMK NXT FCST BY 311200Z=
Your time UTC time
Weather data provided by Environment Canada and NAV CANADA